Terminal Aerodrome Forecast
Issued by NWS

Home | Current Version | Previous Version | Text Only | Print | Product List | Glossary On
Versions: 1 2 3 4 5 6 7 8 9 10 11 12 13 14 15 16 17 18 19 20 21
000
FTUS44 KCRP 260529
TAFLRD
TAF
KLRD 260529Z 2606/2706 15009KT P6SM SCT040 OVC150
      TEMPO 2606/2608 -RA OVC080
     FM260800 15007KT P6SM VCSH BKN015 OVC100
     FM261400 14007KT P6SM BKN025 OVC150
     FM261800 16013KT P6SM BKN035 OVC150
     FM262300 13013KT P6SM VCTS SCT045CB OVC150=

USA.gov is the U.S. government's official web portal to all federal, state and local government web resources and services.